Time;durP1;ratioP1;P1;durP2;ratioP2;P2;SDS_P1;SDS_P2;PMS_P1;PMS_P2;Temp;Humidity;BMP_temperature;BMP_pressure;BME280_temperature;BME280_humidity;BME280_pressure;Samples;Min_cycle;Max_cycle;Signal;HPM_P1;HPM_P2
2021/08/31 00:02:06;;;;;;;;;;;15.10;99.90;;;;;;5112592;27;19927;-84
2021/08/31 00:04:31;;;;;;;;;;;15.10;99.90;;;;;;5095225;27;20322;-85
2021/08/31 00:06:57;;;;;;;;;;;15.10;99.90;;;;;;5087345;27;19931;-85
2021/08/31 00:09:24;;;;;;;;;;;15.10;99.90;;;;;;5112906;27;19924;-85
2021/08/31 00:11:50;;;;;;;;;;;15.10;99.90;;;;;;5099733;28;19920;-85
2021/08/31 00:14:15;;;;;;;;;;;15.10;99.90;;;;;;5109544;28;19935;-85
2021/08/31 00:16:41;;;;;;;;;;;15.10;99.90;;;;;;5123141;27;19923;-85
2021/08/31 00:19:07;;;;;;;;;;;15.10;99.90;;;;;;5095431;27;19923;-85
2021/08/31 00:21:33;;;;;;;;;;;15.10;99.90;;;;;;5105670;27;19934;-85
2021/08/31 00:23:58;;;;;;;;;;;15.00;99.90;;;;;;5116395;27;20018;-85
2021/08/31 00:26:24;;;;;;;;;;;15.00;99.90;;;;;;5108530;27;19927;-84
2021/08/31 00:28:49;;;;;;;;;;;15.00;99.90;;;;;;5111754;27;20393;-85
2021/08/31 00:31:15;;;;;;;;;;;15.00;99.90;;;;;;5084210;27;19923;-84
2021/08/31 00:33:41;;;;;;;;;;;15.00;99.90;;;;;;5094954;27;19923;-85
2021/08/31 00:36:06;;;;;;;;;;;15.00;99.90;;;;;;5090866;27;20391;-85
2021/08/31 00:38:33;;;;;;;;;;;15.00;99.90;;;;;;5103072;28;19926;-84
2021/08/31 00:40:59;;;;;;;;;;;15.00;99.90;;;;;;5092253;28;19931;-84
2021/08/31 00:43:25;;;;;;;;;;;15.00;99.90;;;;;;5079968;28;19919;-85
2021/08/31 00:45:50;;;;;;;;;;;15.00;99.90;;;;;;5108583;28;19946;-86
2021/08/31 00:48:18;;;;;;;;;;;15.00;99.90;;;;;;5091595;28;19930;-85
2021/08/31 00:50:47;;;;;;;;;;;15.00;99.90;;;;;;5109036;27;19931;-85
2021/08/31 00:53:13;;;;;;;;;;;14.90;99.90;;;;;;5111724;27;19942;-85
2021/08/31 00:55:39;;;;;;;;;;;14.90;99.90;;;;;;5100269;27;20462;-84
2021/08/31 00:58:05;;;;;;;;;;;14.90;99.90;;;;;;5111503;27;20339;-84
2021/08/31 01:00:30;;;;;;;;;;;14.90;99.90;;;;;;5111580;27;19923;-85
2021/08/31 01:02:56;;;;;;;;;;;14.80;99.90;;;;;;5076527;28;19923;-85
2021/08/31 01:05:22;;;;;;;;;;;14.80;99.90;;;;;;5095674;28;19919;-84
2021/08/31 01:07:47;;;;;;;;;;;14.80;99.90;;;;;;5074192;28;19967;-84
2021/08/31 01:10:15;;;;;;;;;;;14.80;99.90;;;;;;5091088;28;19973;-84
2021/08/31 01:12:42;;;;;;;;;;;14.80;99.90;;;;;;5090925;28;20690;-85
2021/08/31 01:15:07;;;;;;;;;;;14.80;99.90;;;;;;5074653;28;19970;-84
2021/08/31 01:17:34;;;;;;;;;;;14.80;99.90;;;;;;5094326;28;20377;-85
2021/08/31 01:20:02;;;;;;;;;;;14.80;99.90;;;;;;5111285;28;19919;-85
2021/08/31 01:22:27;;;;;;;;;;;14.70;99.90;;;;;;5093958;28;19920;-84
2021/08/31 01:24:57;;;;;;;;;;;14.70;99.90;;;;;;5091111;28;19929;-84
2021/08/31 01:27:23;;;;;;;;;;;14.70;99.90;;;;;;5090281;28;20447;-85
2021/08/31 01:29:49;;;;;;;;;;;14.70;99.90;;;;;;5091418;28;20374;-85
2021/08/31 01:32:14;;;;;;;;;;;14.70;99.90;;;;;;5082140;28;19926;-85
2021/08/31 01:34:40;;;;;;;;;;;14.70;99.90;;;;;;5111058;28;20509;-85
2021/08/31 01:37:12;;;;;;;;;;;14.70;99.90;;;;;;5094978;28;20002;-84
2021/08/31 01:39:38;;;;;;;;;;;14.70;99.90;;;;;;5074135;28;19927;-85
2021/08/31 01:42:04;;;;;;;;;;;14.70;99.90;;;;;;5079491;28;19948;-85
2021/08/31 01:44:29;;;;;;;;;;;14.70;99.90;;;;;;5094668;28;19928;-84
2021/08/31 01:46:55;;;;;;;;;;;14.70;99.90;;;;;;5093630;28;20443;-84
2021/08/31 01:49:21;;;;;;;;;;;14.70;99.90;;;;;;5107650;28;20474;-85
2021/08/31 01:51:46;;;;;;;;;;;14.70;99.90;;;;;;5084721;28;19966;-84
2021/08/31 01:54:12;;;;;;;;;;;14.70;99.90;;;;;;5074091;28;19924;-84
2021/08/31 01:56:39;;;;;;;;;;;14.70;99.90;;;;;;5072048;28;19924;-84
2021/08/31 01:59:05;;;;;;;;;;;14.70;99.90;;;;;;5091024;28;19945;-84
2021/08/31 02:01:30;;;;;;;;;;;14.70;99.90;;;;;;5067224;28;19932;-84
2021/08/31 02:03:56;;;;;;;;;;;14.60;99.90;;;;;;5073081;28;19927;-85
2021/08/31 02:06:22;;;;;;;;;;;14.70;99.90;;;;;;5090985;28;19920;-85
2021/08/31 02:08:48;;;;;;;;;;;14.70;99.90;;;;;;5070556;28;19919;-84
2021/08/31 02:11:13;;;;;;;;;;;14.70;99.90;;;;;;5072506;28;19930;-84
2021/08/31 02:13:39;;;;;;;;;;;14.70;99.90;;;;;;5073282;28;20435;-85
2021/08/31 02:16:04;;;;;;;;;;;14.70;99.90;;;;;;5088021;28;19924;-85
2021/08/31 02:18:30;;;;;;;;;;;14.70;99.90;;;;;;5065958;28;19971;-85
2021/08/31 02:20:56;;;;;;;;;;;14.70;99.90;;;;;;5091322;28;19975;-85
2021/08/31 02:23:21;;;;;;;;;;;14.70;99.90;;;;;;5076470;28;19949;-84
2021/08/31 02:25:47;;;;;;;;;;;14.70;99.90;;;;;;5087626;28;19927;-84
2021/08/31 02:28:13;;;;;;;;;;;14.70;99.90;;;;;;5066605;28;19924;-85
2021/08/31 02:30:38;;;;;;;;;;;14.70;99.90;;;;;;5077202;28;19949;-85
2021/08/31 02:33:04;;;;;;;;;;;14.70;99.90;;;;;;5068609;28;19924;-84
2021/08/31 02:35:29;;;;;;;;;;;14.70;99.90;;;;;;5077255;28;19923;-84
2021/08/31 02:37:55;;;;;;;;;;;14.70;99.90;;;;;;5072641;28;19931;-83
2021/08/31 02:40:21;;;;;;;;;;;14.70;99.90;;;;;;5075970;28;19924;-84
2021/08/31 02:42:47;;;;;;;;;;;14.80;99.90;;;;;;5076361;28;19927;-84
2021/08/31 02:45:12;;;;;;;;;;;14.80;99.90;;;;;;5106147;28;19931;-85
2021/08/31 02:47:38;;;;;;;;;;;14.80;99.90;;;;;;5069150;28;19924;-84
2021/08/31 02:50:05;;;;;;;;;;;14.80;99.90;;;;;;5093234;28;20013;-84
2021/08/31 02:52:30;;;;;;;;;;;14.80;99.90;;;;;;5110626;28;19992;-84
2021/08/31 02:54:56;;;;;;;;;;;14.70;99.90;;;;;;5082845;28;20475;-84
2021/08/31 02:57:21;;;;;;;;;;;14.80;99.90;;;;;;5058087;28;19927;-84
2021/08/31 02:59:47;;;;;;;;;;;14.70;99.90;;;;;;5090412;28;19935;-85
2021/08/31 03:02:13;;;;;;;;;;;14.70;99.90;;;;;;5087104;28;19919;-84
2021/08/31 03:04:39;;;;;;;;;;;14.70;99.90;;;;;;5091492;28;20405;-84
2021/08/31 03:07:06;;;;;;;;;;;14.70;99.90;;;;;;5108774;28;19923;-85
2021/08/31 03:09:31;;;;;;;;;;;14.70;99.90;;;;;;5083248;28;20105;-84
2021/08/31 03:11:57;;;;;;;;;;;14.70;99.90;;;;;;5092716;28;20036;-84
2021/08/31 03:14:23;;;;;;;;;;;14.70;99.90;;;;;;5093345;28;19924;-85
2021/08/31 03:16:49;;;;;;;;;;;14.70;99.90;;;;;;5073179;28;19920;-83
2021/08/31 03:19:21;;;;;;;;;;;14.70;99.90;;;;;;5098483;28;20007;-85
2021/08/31 03:21:47;;;;;;;;;;;14.70;99.90;;;;;;5079845;28;19923;-84
2021/08/31 03:24:12;;;;;;;;;;;14.70;99.90;;;;;;5109971;28;19925;-85
2021/08/31 03:26:38;;;;;;;;;;;14.70;99.90;;;;;;5076638;28;20444;-84
2021/08/31 03:29:04;;;;;;;;;;;14.70;99.90;;;;;;5075276;28;20030;-84
2021/08/31 03:31:29;;;;;;;;;;;14.70;99.90;;;;;;5092460;28;20320;-85
2021/08/31 03:33:55;;;;;;;;;;;14.80;99.90;;;;;;5092776;28;19981;-84
2021/08/31 03:36:20;;;;;;;;;;;14.80;99.90;;;;;;5082575;28;20026;-84
2021/08/31 03:38:46;;;;;;;;;;;14.80;99.90;;;;;;5071219;28;19923;-84
2021/08/31 03:41:11;;;;;;;;;;;14.80;99.90;;;;;;5093064;28;19970;-84
2021/08/31 03:43:37;;;;;;;;;;;14.80;99.90;;;;;;5075264;28;19919;-84
2021/08/31 03:46:03;;;;;;;;;;;14.80;99.90;;;;;;5067892;28;19928;-85
2021/08/31 03:48:28;;;;;;;;;;;14.80;99.90;;;;;;5074157;28;20351;-84
2021/08/31 03:50:54;;;;;;;;;;;14.80;99.90;;;;;;5067827;28;19931;-85
2021/08/31 03:53:20;;;;;;;;;;;14.90;99.90;;;;;;5064723;28;19930;-85
2021/08/31 03:55:45;;;;;;;;;;;14.90;99.90;;;;;;5074286;28;19962;-84
2021/08/31 03:58:11;;;;;;;;;;;14.90;99.90;;;;;;5092158;28;19945;-85
2021/08/31 04:00:36;;;;;;;;;;;15.00;99.90;;;;;;5075005;28;19974;-84
2021/08/31 04:03:02;;;;;;;;;;;15.00;99.90;;;;;;5074430;28;19976;-84
2021/08/31 04:05:29;;;;;;;;;;;15.00;99.90;;;;;;5087527;28;19969;-85
2021/08/31 04:07:55;;;;;;;;;;;15.10;99.90;;;;;;5062525;28;19966;-84
2021/08/31 04:10:20;;;;;;;;;;;15.10;99.90;;;;;;5086898;28;19978;-85
2021/08/31 04:12:46;;;;;;;;;;;15.20;99.90;;;;;;5073462;28;19974;-84
2021/08/31 04:15:12;;;;;;;;;;;15.20;99.90;;;;;;5092645;28;20407;-84
2021/08/31 04:17:38;;;;;;;;;;;15.30;99.90;;;;;;5073552;28;19974;-85
2021/08/31 04:20:04;;;;;;;;;;;15.30;99.90;;;;;;5075192;28;20337;-85
2021/08/31 04:22:29;;;;;;;;;;;15.40;99.90;;;;;;5092048;28;20015;-85
2021/08/31 04:24:55;;;;;;;;;;;15.40;99.90;;;;;;5089291;28;19995;-84
2021/08/31 04:27:21;;;;;;;;;;;15.50;99.90;;;;;;5074370;28;19938;-84
2021/08/31 04:29:46;;;;;;;;;;;15.50;99.90;;;;;;5091272;28;19998;-84
2021/08/31 04:32:12;;;;;;;;;;;15.50;99.90;;;;;;5108456;28;19928;-84
2021/08/31 04:34:38;;;;;;;;;;;15.50;99.90;;;;;;5073928;28;20256;-84
2021/08/31 04:37:03;;;;;;;;;;;15.60;99.90;;;;;;5108569;28;20436;-84
2021/08/31 04:39:29;;;;;;;;;;;15.60;99.90;;;;;;5073619;28;19924;-85
2021/08/31 04:41:54;;;;;;;;;;;15.60;99.90;;;;;;5074902;28;19926;-84
2021/08/31 04:44:20;;;;;;;;;;;15.70;99.90;;;;;;5085768;28;19924;-84
2021/08/31 04:46:45;;;;;;;;;;;15.70;99.90;;;;;;5076424;28;20299;-85
2021/08/31 04:49:11;;;;;;;;;;;15.70;99.90;;;;;;5076554;27;19948;-84
2021/08/31 04:51:37;;;;;;;;;;;15.70;99.90;;;;;;5079186;27;19927;-84
2021/08/31 04:54:02;;;;;;;;;;;15.70;99.90;;;;;;5109240;27;19919;-84
2021/08/31 04:56:28;;;;;;;;;;;15.70;99.90;;;;;;5099493;28;19930;-84
2021/08/31 04:58:53;;;;;;;;;;;15.70;99.90;;;;;;5077997;27;19927;-85
2021/08/31 05:01:19;;;;;;;;;;;15.60;99.90;;;;;;5106853;27;19930;-85
2021/08/31 05:03:46;;;;;;;;;;;15.60;99.90;;;;;;5094462;27;19926;-84
2021/08/31 05:06:11;;;;;;;;;;;15.60;99.90;;;;;;5088552;27;19989;-87
2021/08/31 05:08:37;;;;;;;;;;;15.60;99.90;;;;;;5107813;27;20417;-85
2021/08/31 05:11:03;;;;;;;;;;;15.60;99.90;;;;;;5094585;27;19950;-84
2021/08/31 05:13:30;;;;;;;;;;;15.60;99.90;;;;;;5112918;27;20048;-84
2021/08/31 05:15:57;;;;;;;;;;;15.60;99.90;;;;;;5104799;27;20401;-85
2021/08/31 05:18:22;;;;;;;;;;;15.60;99.90;;;;;;5111051;27;19998;-89
2021/08/31 05:20:48;;;;;;;;;;;15.60;99.90;;;;;;5080759;27;20045;-84
2021/08/31 05:23:14;;;;;;;;;;;15.60;99.90;;;;;;5082613;28;20006;-85
2021/08/31 05:25:39;;;;;;;;;;;15.60;99.90;;;;;;5081432;28;19923;-84
2021/08/31 05:28:05;;;;;;;;;;;15.60;99.90;;;;;;5078980;28;19936;-84
2021/08/31 05:30:30;;;;;;;;;;;15.60;99.90;;;;;;5096509;27;19974;-85
2021/08/31 05:32:56;;;;;;;;;;;15.60;99.90;;;;;;5079257;28;19923;-85
2021/08/31 05:35:22;;;;;;;;;;;15.60;99.90;;;;;;5089145;27;19980;-85
2021/08/31 05:37:47;;;;;;;;;;;15.60;99.90;;;;;;5086626;28;19915;-85
2021/08/31 05:40:13;;;;;;;;;;;15.70;99.90;;;;;;5083587;27;20378;-84
2021/08/31 05:42:38;;;;;;;;;;;15.70;99.90;;;;;;5113265;27;19919;-85
2021/08/31 05:45:04;;;;;;;;;;;15.70;99.90;;;;;;5110431;27;20469;-84
2021/08/31 05:47:30;;;;;;;;;;;15.70;99.90;;;;;;5110215;27;19916;-84
2021/08/31 05:49:55;;;;;;;;;;;15.80;99.90;;;;;;5084431;27;19927;-84
2021/08/31 05:52:21;;;;;;;;;;;15.80;99.90;;;;;;5085635;27;20378;-84
2021/08/31 05:54:46;;;;;;;;;;;15.90;99.90;;;;;;5096821;27;19934;-84
2021/08/31 05:57:12;;;;;;;;;;;15.90;99.90;;;;;;5086029;27;19930;-84
2021/08/31 05:59:41;;;;;;;;;;;15.90;99.90;;;;;;5086485;27;20374;-84
2021/08/31 06:02:10;;;;;;;;;;;16.00;99.90;;;;;;5090839;27;19975;-84
2021/08/31 06:04:39;;;;;;;;;;;16.00;99.90;;;;;;5107432;27;20760;-85
2021/08/31 06:07:08;;;;;;;;;;;16.10;99.90;;;;;;5103226;27;19926;-84
2021/08/31 06:09:37;;;;;;;;;;;16.20;99.90;;;;;;5111861;27;19923;-85
2021/08/31 06:12:07;;;;;;;;;;;16.20;99.90;;;;;;5124998;27;19928;-84
2021/08/31 06:14:32;;;;;;;;;;;16.20;99.90;;;;;;5098270;27;19972;-84
2021/08/31 06:16:58;;;;;;;;;;;16.30;99.90;;;;;;5081150;27;19939;-84
2021/08/31 06:19:24;;;;;;;;;;;16.30;99.90;;;;;;5118109;27;19923;-85
2021/08/31 06:21:49;;;;;;;;;;;16.30;99.90;;;;;;5114741;27;19927;-86
2021/08/31 06:24:15;;;;;;;;;;;16.30;99.90;;;;;;5081161;27;19926;-84
2021/08/31 06:26:41;;;;;;;;;;;16.30;99.90;;;;;;5096322;27;19975;-85
2021/08/31 06:29:06;;;;;;;;;;;16.30;99.90;;;;;;5116617;27;19923;-85
2021/08/31 06:31:32;;;;;;;;;;;16.40;99.90;;;;;;5117967;27;20378;-85
2021/08/31 06:33:57;;;;;;;;;;;16.40;99.90;;;;;;5117683;27;19919;-84
2021/08/31 06:36:23;;;;;;;;;;;16.40;99.90;;;;;;5134676;27;19923;-85
2021/08/31 06:38:48;;;;;;;;;;;16.50;99.90;;;;;;5100079;27;19926;-85
2021/08/31 06:41:14;;;;;;;;;;;16.50;99.90;;;;;;5085905;27;19923;-85
2021/08/31 06:43:40;;;;;;;;;;;16.50;99.90;;;;;;5102410;27;20038;-84
2021/08/31 06:46:06;;;;;;;;;;;16.50;99.90;;;;;;5080875;27;19946;-84
2021/08/31 06:48:31;;;;;;;;;;;16.50;99.90;;;;;;5115006;27;19923;-85
2021/08/31 06:51:03;;;;;;;;;;;16.60;99.90;;;;;;5113748;27;20347;-85
2021/08/31 06:53:29;;;;;;;;;;;16.60;99.90;;;;;;5101955;27;19930;-84
2021/08/31 06:55:54;;;;;;;;;;;16.60;99.90;;;;;;5103891;27;19923;-85
2021/08/31 06:58:20;;;;;;;;;;;16.60;99.90;;;;;;5107281;27;20404;-85
2021/08/31 07:00:45;;;;;;;;;;;16.60;99.90;;;;;;5111181;27;19927;-84
2021/08/31 07:03:11;;;;;;;;;;;16.70;99.90;;;;;;5097868;27;19924;-85
2021/08/31 07:05:36;;;;;;;;;;;16.70;99.90;;;;;;5080497;27;20423;-85
2021/08/31 07:08:02;;;;;;;;;;;16.70;99.90;;;;;;5092676;27;20408;-85
2021/08/31 07:10:28;;;;;;;;;;;16.80;99.90;;;;;;5113038;27;19923;-85
2021/08/31 07:12:53;;;;;;;;;;;16.80;99.90;;;;;;5079893;27;20396;-85
2021/08/31 07:15:19;;;;;;;;;;;16.80;99.90;;;;;;5087358;27;19919;-86
2021/08/31 07:17:45;;;;;;;;;;;16.90;99.90;;;;;;5104182;27;19923;-85
2021/08/31 07:20:11;;;;;;;;;;;16.90;99.90;;;;;;5104196;27;19923;-84
2021/08/31 07:22:36;;;;;;;;;;;16.90;99.90;;;;;;5087258;27;19923;-85
2021/08/31 07:25:02;;;;;;;;;;;16.90;99.90;;;;;;5085424;27;20080;-85
2021/08/31 07:27:27;;;;;;;;;;;17.00;99.90;;;;;;5108259;27;19961;-85
2021/08/31 07:29:53;;;;;;;;;;;17.00;99.90;;;;;;5104018;27;20032;-85
2021/08/31 07:32:19;;;;;;;;;;;17.00;99.90;;;;;;5089307;27;19927;-85
2021/08/31 07:34:44;;;;;;;;;;;17.00;99.90;;;;;;5106374;27;19926;-85
2021/08/31 07:37:10;;;;;;;;;;;17.00;99.90;;;;;;5103742;27;19930;-85
2021/08/31 07:39:36;;;;;;;;;;;17.00;99.90;;;;;;5096632;27;19924;-85
2021/08/31 07:42:02;;;;;;;;;;;17.00;99.90;;;;;;5095852;27;19920;-84
2021/08/31 07:44:27;;;;;;;;;;;17.00;99.90;;;;;;5094152;27;20087;-87
2021/08/31 07:46:53;;;;;;;;;;;17.10;99.90;;;;;;5101081;27;20027;-85
2021/08/31 07:49:19;;;;;;;;;;;17.10;99.90;;;;;;5091476;27;20426;-85
2021/08/31 07:51:47;;;;;;;;;;;17.10;99.90;;;;;;5113053;27;19927;-85
2021/08/31 07:54:13;;;;;;;;;;;17.10;99.90;;;;;;5095084;27;19924;-84
2021/08/31 07:56:38;;;;;;;;;;;17.10;99.90;;;;;;5113688;27;19925;-86
2021/08/31 07:59:04;;;;;;;;;;;17.20;99.90;;;;;;5105312;27;19973;-85
2021/08/31 08:01:30;;;;;;;;;;;17.20;99.90;;;;;;5109176;27;19922;-85
2021/08/31 08:03:56;;;;;;;;;;;17.20;99.90;;;;;;5131614;27;19923;-84
2021/08/31 08:06:22;;;;;;;;;;;17.10;99.90;;;;;;5112112;27;19919;-85
2021/08/31 08:08:47;;;;;;;;;;;17.20;99.90;;;;;;5110826;27;20378;-84
2021/08/31 08:11:13;;;;;;;;;;;17.20;99.90;;;;;;5101325;27;19970;-85
2021/08/31 08:13:38;;;;;;;;;;;17.20;99.90;;;;;;5114168;27;20370;-84
2021/08/31 08:16:04;;;;;;;;;;;17.20;99.90;;;;;;5114506;27;19919;-85
2021/08/31 08:18:30;;;;;;;;;;;17.20;99.90;;;;;;5111025;27;19919;-85
2021/08/31 08:20:55;;;;;;;;;;;17.20;99.90;;;;;;5114113;27;19930;-85
2021/08/31 08:23:21;;;;;;;;;;;17.20;99.90;;;;;;5091791;27;20374;-85
2021/08/31 08:25:47;;;;;;;;;;;17.20;99.90;;;;;;5115077;27;19923;-85
2021/08/31 08:28:13;;;;;;;;;;;17.20;99.90;;;;;;5119678;27;20033;-85
2021/08/31 08:30:38;;;;;;;;;;;17.30;99.90;;;;;;5104378;27;20473;-84
2021/08/31 08:33:04;;;;;;;;;;;17.30;99.90;;;;;;5111746;27;19976;-85
2021/08/31 08:35:29;;;;;;;;;;;17.30;99.90;;;;;;5096120;27;19971;-85
2021/08/31 08:37:57;;;;;;;;;;;17.30;99.90;;;;;;5098031;27;20037;-85
2021/08/31 08:40:23;;;;;;;;;;;17.30;99.90;;;;;;5114131;27;19976;-85
2021/08/31 08:42:51;;;;;;;;;;;17.40;99.90;;;;;;5115277;27;19923;-85
2021/08/31 08:45:18;;;;;;;;;;;17.40;99.90;;;;;;5113650;27;20289;-85
2021/08/31 08:47:43;;;;;;;;;;;17.40;99.90;;;;;;5109046;27;20010;-85
2021/08/31 08:50:09;;;;;;;;;;;17.40;99.90;;;;;;5110849;27;20014;-85
2021/08/31 08:52:35;;;;;;;;;;;17.40;99.90;;;;;;5091947;28;19967;-85
2021/08/31 08:55:01;;;;;;;;;;;17.40;99.90;;;;;;5091393;28;19924;-85
2021/08/31 08:57:28;;;;;;;;;;;17.40;99.90;;;;;;5074241;28;19947;-85
2021/08/31 08:59:54;;;;;;;;;;;17.40;99.90;;;;;;5092394;28;19924;-84
2021/08/31 09:02:39;;;;;;;;;;;17.40;99.90;;;;;;5090963;27;20431;-85
2021/08/31 09:05:07;;;;;;;;;;;17.50;99.90;;;;;;5111386;27;19982;-85
2021/08/31 09:07:35;;;;;;;;;;;17.50;99.90;;;;;;5111034;27;19929;-83
2021/08/31 09:10:17;;;;;;;;;;;17.60;99.90;;;;;;5110919;27;19996;-85
2021/08/31 09:12:47;;;;;;;;;;;17.60;99.90;;;;;;5110734;27;19924;-84
2021/08/31 09:15:19;;;;;;;;;;;17.60;99.90;;;;;;5111152;27;20531;-85
2021/08/31 09:18:18;;;;;;;;;;;17.60;99.90;;;;;;5127158;27;19954;-85
2021/08/31 09:20:46;;;;;;;;;;;17.60;99.90;;;;;;5076914;27;19924;-85
2021/08/31 09:23:17;;;;;;;;;;;17.60;99.90;;;;;;5091538;28;19924;-85
2021/08/31 09:25:44;;;;;;;;;;;17.60;99.90;;;;;;5108146;28;19966;-85
2021/08/31 09:28:25;;;;;;;;;;;17.60;99.90;;;;;;5093847;28;20046;-85
2021/08/31 09:31:03;;;;;;;;;;;17.60;99.90;;;;;;5106954;28;20018;-85
2021/08/31 09:33:33;;;;;;;;;;;17.60;99.90;;;;;;5122104;27;19945;-85
2021/08/31 09:36:13;;;;;;;;;;;17.60;99.90;;;;;;5098170;27;19980;-84
2021/08/31 09:38:40;;;;;;;;;;;17.60;99.90;;;;;;5110039;27;19923;-85
2021/08/31 09:41:06;;;;;;;;;;;17.60;99.90;;;;;;5098976;28;19934;-84
2021/08/31 09:43:38;;;;;;;;;;;17.60;99.90;;;;;;5115748;27;19919;-84
2021/08/31 09:46:03;;;;;;;;;;;17.60;99.90;;;;;;5106241;27;19963;-84
2021/08/31 09:48:29;;;;;;;;;;;17.60;99.90;;;;;;5104149;27;20019;-85
2021/08/31 09:50:58;;;;;;;;;;;17.60;99.90;;;;;;5093548;28;19989;-85
2021/08/31 09:53:23;;;;;;;;;;;17.60;99.90;;;;;;5077577;28;19929;-85
2021/08/31 09:55:50;;;;;;;;;;;17.60;99.90;;;;;;5080021;28;20402;-85
2021/08/31 09:58:25;;;;;;;;;;;17.60;99.90;;;;;;5074781;28;20459;-85
2021/08/31 10:00:53;;;;;;;;;;;17.60;99.90;;;;;;5090253;28;19920;-87
2021/08/31 10:03:20;;;;;;;;;;;17.70;99.90;;;;;;5094092;28;19924;-85
2021/08/31 10:05:46;;;;;;;;;;;17.60;99.90;;;;;;5076231;28;19920;-85
2021/08/31 10:08:12;;;;;;;;;;;17.60;99.90;;;;;;5059494;28;20011;-86
2021/08/31 10:10:41;;;;;;;;;;;17.60;99.90;;;;;;5086002;28;19935;-84
2021/08/31 10:13:11;;;;;;;;;;;17.70;99.90;;;;;;5090698;28;20405;-84
2021/08/31 10:15:39;;;;;;;;;;;17.70;99.90;;;;;;5099329;28;19924;-85
2021/08/31 10:18:05;;;;;;;;;;;17.70;99.90;;;;;;5092146;28;20028;-84
2021/08/31 10:20:31;;;;;;;;;;;17.70;99.90;;;;;;5074598;28;20280;-85
2021/08/31 10:22:57;;;;;;;;;;;17.70;99.90;;;;;;5083329;28;19942;-85
2021/08/31 10:25:24;;;;;;;;;;;17.70;99.90;;;;;;5085191;28;19923;-85
2021/08/31 10:27:50;;;;;;;;;;;17.60;99.90;;;;;;5109973;28;19949;-84
2021/08/31 10:30:19;;;;;;;;;;;17.60;99.90;;;;;;5091808;28;19920;-85
2021/08/31 10:32:57;;;;;;;;;;;17.60;99.90;;;;;;5082878;28;19971;-85
2021/08/31 10:35:29;;;;;;;;;;;17.70;99.90;;;;;;5086437;28;20390;-85
2021/08/31 10:37:55;;;;;;;;;;;17.70;99.90;;;;;;5109045;28;19934;-84
2021/08/31 10:40:31;;;;;;;;;;;17.70;99.90;;;;;;5076128;28;19923;-84
2021/08/31 10:42:57;;;;;;;;;;;17.70;99.90;;;;;;5091900;28;20046;-84
2021/08/31 10:45:25;;;;;;;;;;;17.60;99.90;;;;;;5105526;28;19995;-85
2021/08/31 10:47:51;;;;;;;;;;;17.60;99.90;;;;;;5088240;28;20376;-85
2021/08/31 10:50:21;;;;;;;;;;;17.60;99.90;;;;;;5075219;28;19927;-85
2021/08/31 10:52:49;;;;;;;;;;;17.60;99.90;;;;;;5093163;27;19927;-84
2021/08/31 10:55:17;;;;;;;;;;;17.60;99.90;;;;;;5095635;27;19925;-85
2021/08/31 10:57:43;;;;;;;;;;;17.60;99.90;;;;;;5113233;27;19920;-85
2021/08/31 11:00:15;;;;;;;;;;;17.60;99.90;;;;;;5077504;28;19946;-85
2021/08/31 11:02:50;;;;;;;;;;;17.60;99.90;;;;;;5092596;27;19927;-85
2021/08/31 11:05:22;;;;;;;;;;;17.70;99.90;;;;;;5115086;27;19919;-85
2021/08/31 11:07:51;;;;;;;;;;;17.70;99.90;;;;;;5110161;27;19923;-85
2021/08/31 11:10:24;;;;;;;;;;;17.70;99.90;;;;;;5122015;27;19924;-85
2021/08/31 11:12:50;;;;;;;;;;;17.70;99.90;;;;;;5104002;27;20426;-84
2021/08/31 11:15:24;;;;;;;;;;;17.80;99.90;;;;;;5084868;28;19984;-84
2021/08/31 11:17:51;;;;;;;;;;;17.70;99.90;;;;;;5108924;28;19927;-84
2021/08/31 11:20:25;;;;;;;;;;;17.70;99.90;;;;;;5101605;27;20310;-84
2021/08/31 11:22:54;;;;;;;;;;;17.70;99.90;;;;;;5108341;27;19924;-84
2021/08/31 11:25:29;;;;;;;;;;;17.70;99.90;;;;;;5099180;27;20034;-85
2021/08/31 11:27:56;;;;;;;;;;;17.70;99.90;;;;;;5124378;27;19920;-85
2021/08/31 11:30:28;;;;;;;;;;;17.70;99.90;;;;;;5099870;28;19971;-84
2021/08/31 11:33:30;;;;;;;;;;;17.80;99.90;;;;;;5092831;28;19928;-84
2021/08/31 11:36:05;;;;;;;;;;;17.80;99.90;;;;;;5026336;28;20464;-85
2021/08/31 11:38:35;;;;;;;;;;;17.80;99.90;;;;;;5099519;28;20018;-85
2021/08/31 11:41:19;;;;;;;;;;;17.80;99.90;;;;;;5091537;28;19919;-83
2021/08/31 11:43:47;;;;;;;;;;;17.80;99.90;;;;;;5092675;27;20386;-84
2021/08/31 11:46:12;;;;;;;;;;;17.80;99.90;;;;;;5109722;27;19927;-85
2021/08/31 11:48:38;;;;;;;;;;;17.90;99.90;;;;;;5100714;28;19920;-84
2021/08/31 11:51:04;;;;;;;;;;;17.80;99.90;;;;;;5091251;28;19931;-85
2021/08/31 11:53:30;;;;;;;;;;;17.80;99.90;;;;;;5091478;28;19923;-84
2021/08/31 11:55:57;;;;;;;;;;;17.80;99.90;;;;;;5092060;28;19923;-85
2021/08/31 11:58:23;;;;;;;;;;;17.90;99.90;;;;;;5075658;28;19973;-84
2021/08/31 12:00:49;;;;;;;;;;;17.90;99.90;;;;;;5088956;28;19920;-85
2021/08/31 12:03:22;;;;;;;;;;;17.90;99.90;;;;;;5062593;28;19930;-85
2021/08/31 12:05:49;;;;;;;;;;;17.90;99.90;;;;;;5107477;28;19930;-85
2021/08/31 12:08:15;;;;;;;;;;;17.90;99.90;;;;;;5089855;28;19999;-84
2021/08/31 12:10:40;;;;;;;;;;;17.90;99.90;;;;;;5073763;28;19949;-85
2021/08/31 12:13:06;;;;;;;;;;;18.00;99.90;;;;;;5075211;28;19938;-85
2021/08/31 12:15:32;;;;;;;;;;;18.00;99.90;;;;;;5091586;28;20006;-85
2021/08/31 12:17:59;;;;;;;;;;;18.00;99.90;;;;;;5091277;28;19984;-84
2021/08/31 12:20:25;;;;;;;;;;;18.10;99.90;;;;;;5091614;28;19969;-85
2021/08/31 12:22:52;;;;;;;;;;;18.10;99.90;;;;;;5091672;28;19959;-85
2021/08/31 12:25:18;;;;;;;;;;;18.20;99.90;;;;;;5085591;28;19920;-85
2021/08/31 12:27:45;;;;;;;;;;;18.20;99.90;;;;;;5107508;28;19927;-85
2021/08/31 12:30:13;;;;;;;;;;;18.10;99.90;;;;;;5108000;28;19920;-84
2021/08/31 12:32:41;;;;;;;;;;;18.10;99.90;;;;;;5107914;28;19930;-85
2021/08/31 12:35:24;;;;;;;;;;;18.10;99.90;;;;;;5091539;28;19931;-84
2021/08/31 12:38:10;;;;;;;;;;;18.10;99.90;;;;;;5090142;28;20014;-85
2021/08/31 12:41:06;;;;;;;;;;;18.00;99.90;;;;;;5090753;28;19923;-84
2021/08/31 12:43:42;;;;;;;;;;;18.00;99.90;;;;;;5084548;28;19932;-85
2021/08/31 12:46:08;;;;;;;;;;;18.00;99.90;;;;;;5082679;28;19924;-85
2021/08/31 12:48:43;;;;;;;;;;;18.00;99.90;;;;;;5090127;28;19919;-85
2021/08/31 12:51:08;;;;;;;;;;;17.90;99.90;;;;;;5109553;27;19973;-85
2021/08/31 12:53:36;;;;;;;;;;;17.80;99.90;;;;;;5111065;27;19923;-85
2021/08/31 12:56:02;;;;;;;;;;;17.80;99.90;;;;;;5111649;27;19927;-85
2021/08/31 12:58:34;;;;;;;;;;;17.80;99.90;;;;;;5111321;27;19930;-85
2021/08/31 13:01:08;;;;;;;;;;;17.80;99.90;;;;;;5111270;27;19923;-85
2021/08/31 13:03:34;;;;;;;;;;;17.80;99.90;;;;;;5098165;27;19968;-84
2021/08/31 13:05:59;;;;;;;;;;;17.80;99.90;;;;;;5109968;27;19919;-85
2021/08/31 13:08:25;;;;;;;;;;;17.70;99.90;;;;;;5128376;27;19926;-84
2021/08/31 13:10:51;;;;;;;;;;;17.70;99.90;;;;;;5093374;27;20077;-85
2021/08/31 13:13:46;;;;;;;;;;;17.70;99.90;;;;;;5094196;27;19923;-84
2021/08/31 13:16:11;;;;;;;;;;;17.70;99.90;;;;;;5094647;27;19969;-84
2021/08/31 13:18:37;;;;;;;;;;;17.60;99.90;;;;;;5110663;28;19923;-84
2021/08/31 13:21:02;;;;;;;;;;;17.70;99.90;;;;;;5085818;28;19915;-86
2021/08/31 13:23:28;;;;;;;;;;;17.60;99.90;;;;;;5073766;28;19942;-85
2021/08/31 13:25:54;;;;;;;;;;;17.70;99.90;;;;;;5102425;28;20255;-85
2021/08/31 13:28:19;;;;;;;;;;;17.70;99.90;;;;;;5092265;28;19930;-84
2021/08/31 13:30:45;;;;;;;;;;;17.70;99.90;;;;;;5088031;28;19928;-85
2021/08/31 13:33:10;;;;;;;;;;;17.80;99.90;;;;;;5088463;28;20502;-85
2021/08/31 13:35:36;;;;;;;;;;;17.80;99.90;;;;;;5088587;28;19957;-85
2021/08/31 13:38:02;;;;;;;;;;;17.80;99.90;;;;;;5071818;28;19923;-85
2021/08/31 13:40:27;;;;;;;;;;;17.80;99.90;;;;;;5071584;28;20019;-85
2021/08/31 13:42:53;;;;;;;;;;;17.80;99.90;;;;;;5081589;28;19923;-84
2021/08/31 13:45:19;;;;;;;;;;;17.80;99.90;;;;;;5104225;28;19969;-85
2021/08/31 13:47:44;;;;;;;;;;;17.80;99.90;;;;;;5081538;28;19923;-85
2021/08/31 13:50:10;;;;;;;;;;;17.80;99.90;;;;;;5091594;28;19932;-85
2021/08/31 13:52:35;;;;;;;;;;;17.80;99.90;;;;;;5122688;28;19927;-84
2021/08/31 13:55:01;;;;;;;;;;;17.80;99.90;;;;;;5084676;28;19934;-85
2021/08/31 13:57:29;;;;;;;;;;;17.80;99.90;;;;;;5099998;28;19969;-85
2021/08/31 13:59:58;;;;;;;;;;;17.80;99.90;;;;;;5110786;28;20202;-85
2021/08/31 14:02:23;;;;;;;;;;;17.80;99.90;;;;;;5093759;28;19923;-85
2021/08/31 14:04:50;;;;;;;;;;;17.70;99.90;;;;;;5084653;28;19968;-84
2021/08/31 14:07:15;;;;;;;;;;;17.70;99.90;;;;;;5090372;28;19916;-85
2021/08/31 14:09:41;;;;;;;;;;;17.60;99.90;;;;;;5121795;28;19924;-85
2021/08/31 14:12:06;;;;;;;;;;;17.60;99.90;;;;;;5093490;28;20310;-85
2021/08/31 14:14:32;;;;;;;;;;;17.60;99.90;;;;;;5106158;28;19948;-85
2021/08/31 14:16:58;;;;;;;;;;;17.60;99.90;;;;;;5086045;27;19946;-85